sensor_id;sensor_type;location;lat;lon;timestamp;temperature;humidity
21092;DHT22;10704;42.678;23.288;2023-01-19T00:04:59;14.80;75.50
21092;DHT22;10704;42.678;23.288;2023-01-19T00:07:26;14.90;76.80
21092;DHT22;10704;42.678;23.288;2023-01-19T00:09:53;14.80;76.40
21092;DHT22;10704;42.678;23.288;2023-01-19T00:12:19;14.80;76.50
21092;DHT22;10704;42.678;23.288;2023-01-19T00:14:45;14.90;76.70
21092;DHT22;10704;42.678;23.288;2023-01-19T00:17:11;14.90;76.90
21092;DHT22;10704;42.678;23.288;2023-01-19T00:19:37;14.90;76.80
21092;DHT22;10704;42.678;23.288;2023-01-19T00:22:03;14.90;77.00
21092;DHT22;10704;42.678;23.288;2023-01-19T00:24:31;14.80;77.00
21092;DHT22;10704;42.678;23.288;2023-01-19T00:26:57;14.80;77.30
21092;DHT22;10704;42.678;23.288;2023-01-19T00:29:23;14.80;77.20
21092;DHT22;10704;42.678;23.288;2023-01-19T00:31:49;14.90;76.70
21092;DHT22;10704;42.678;23.288;2023-01-19T00:34:15;14.90;76.80
21092;DHT22;10704;42.678;23.288;2023-01-19T00:36:42;14.80;77.00
21092;DHT22;10704;42.678;23.288;2023-01-19T00:39:08;14.80;77.10
21092;DHT22;10704;42.678;23.288;2023-01-19T00:41:34;14.80;76.60
21092;DHT22;10704;42.678;23.288;2023-01-19T00:44:18;14.90;75.70
21092;DHT22;10704;42.678;23.288;2023-01-19T00:46:44;14.90;75.70
21092;DHT22;10704;42.678;23.288;2023-01-19T00:49:10;14.90;75.70
21092;DHT22;10704;42.678;23.288;2023-01-19T00:51:36;14.90;75.60
21092;DHT22;10704;42.678;23.288;2023-01-19T00:54:02;14.80;75.90
21092;DHT22;10704;42.678;23.288;2023-01-19T00:56:30;14.80;75.70
21092;DHT22;10704;42.678;23.288;2023-01-19T00:58:56;14.90;75.60
21092;DHT22;10704;42.678;23.288;2023-01-19T01:01:22;14.80;75.90
21092;DHT22;10704;42.678;23.288;2023-01-19T01:03:48;14.80;76.00
21092;DHT22;10704;42.678;23.288;2023-01-19T01:06:14;14.90;75.00
21092;DHT22;10704;42.678;23.288;2023-01-19T01:08:40;15.00;74.80
21092;DHT22;10704;42.678;23.288;2023-01-19T01:11:06;14.90;75.10
21092;DHT22;10704;42.678;23.288;2023-01-19T01:13:32;14.80;75.20
21092;DHT22;10704;42.678;23.288;2023-01-19T01:15:58;14.80;75.50
21092;DHT22;10704;42.678;23.288;2023-01-19T01:18:24;14.80;75.90
21092;DHT22;10704;42.678;23.288;2023-01-19T01:20:50;14.70;75.80
21092;DHT22;10704;42.678;23.288;2023-01-19T01:23:16;14.70;75.90
21092;DHT22;10704;42.678;23.288;2023-01-19T01:25:47;14.80;75.40
21092;DHT22;10704;42.678;23.288;2023-01-19T01:28:13;14.80;75.10
21092;DHT22;10704;42.678;23.288;2023-01-19T01:30:39;14.80;74.80
21092;DHT22;10704;42.678;23.288;2023-01-19T01:33:07;14.80;74.40
21092;DHT22;10704;42.678;23.288;2023-01-19T01:35:33;14.80;74.20
21092;DHT22;10704;42.678;23.288;2023-01-19T01:37:59;14.80;74.00
21092;DHT22;10704;42.678;23.288;2023-01-19T01:40:26;14.90;73.80
21092;DHT22;10704;42.678;23.288;2023-01-19T01:42:53;14.90;74.00
21092;DHT22;10704;42.678;23.288;2023-01-19T01:45:29;14.90;73.60
21092;DHT22;10704;42.678;23.288;2023-01-19T01:48:21;15.00;73.30
21092;DHT22;10704;42.678;23.288;2023-01-19T01:51:03;14.90;73.30
21092;DHT22;10704;42.678;23.288;2023-01-19T01:54:00;14.90;73.50
21092;DHT22;10704;42.678;23.288;2023-01-19T01:56:33;14.90;73.90
21092;DHT22;10704;42.678;23.288;2023-01-19T01:59:02;15.00;73.10
21092;DHT22;10704;42.678;23.288;2023-01-19T02:01:30;15.00;73.20
21092;DHT22;10704;42.678;23.288;2023-01-19T02:04:15;14.90;73.30
21092;DHT22;10704;42.678;23.288;2023-01-19T02:06:41;14.90;73.40
21092;DHT22;10704;42.678;23.288;2023-01-19T02:09:26;14.80;73.80
21092;DHT22;10704;42.678;23.288;2023-01-19T02:12:13;14.80;73.60
21092;DHT22;10704;42.678;23.288;2023-01-19T02:14:57;14.90;72.10
21092;DHT22;10704;42.678;23.288;2023-01-19T02:17:23;15.10;71.40
21092;DHT22;10704;42.678;23.288;2023-01-19T02:19:49;15.00;71.40
21092;DHT22;10704;42.678;23.288;2023-01-19T02:22:30;15.00;71.40
21092;DHT22;10704;42.678;23.288;2023-01-19T02:25:02;14.90;71.60
21092;DHT22;10704;42.678;23.288;2023-01-19T02:27:29;14.90;71.20
21092;DHT22;10704;42.678;23.288;2023-01-19T02:29:56;15.00;71.10
21092;DHT22;10704;42.678;23.288;2023-01-19T02:32:22;15.00;71.00
21092;DHT22;10704;42.678;23.288;2023-01-19T02:34:48;15.00;71.10
21092;DHT22;10704;42.678;23.288;2023-01-19T02:37:16;14.90;71.10
21092;DHT22;10704;42.678;23.288;2023-01-19T02:39:50;15.00;71.00
21092;DHT22;10704;42.678;23.288;2023-01-19T02:42:48;14.90;71.10
21092;DHT22;10704;42.678;23.288;2023-01-19T02:45:18;14.80;71.40
21092;DHT22;10704;42.678;23.288;2023-01-19T02:47:47;15.00;70.10
21092;DHT22;10704;42.678;23.288;2023-01-19T02:53:05;15.10;70.50
21092;DHT22;10704;42.678;23.288;2023-01-19T02:55:39;15.00;70.80
21092;DHT22;10704;42.678;23.288;2023-01-19T02:58:15;14.90;71.00
21092;DHT22;10704;42.678;23.288;2023-01-19T03:08:43;14.80;70.50
21092;DHT22;10704;42.678;23.288;2023-01-19T03:11:12;14.80;70.80
21092;DHT22;10704;42.678;23.288;2023-01-19T03:13:51;14.70;70.70
21092;DHT22;10704;42.678;23.288;2023-01-19T03:18:53;14.70;71.10
21092;DHT22;10704;42.678;23.288;2023-01-19T03:21:22;14.70;70.50
21092;DHT22;10704;42.678;23.288;2023-01-19T03:23:50;14.70;70.70
21092;DHT22;10704;42.678;23.288;2023-01-19T03:26:19;14.70;70.30
21092;DHT22;10704;42.678;23.288;2023-01-19T03:28:47;14.70;70.80
21092;DHT22;10704;42.678;23.288;2023-01-19T03:31:18;14.70;71.60
21092;DHT22;10704;42.678;23.288;2023-01-19T03:33:55;14.60;70.60
21092;DHT22;10704;42.678;23.288;2023-01-19T03:36:36;14.60;70.80
21092;DHT22;10704;42.678;23.288;2023-01-19T03:39:06;14.60;71.70
21092;DHT22;10704;42.678;23.288;2023-01-19T03:41:35;14.60;70.70
21092;DHT22;10704;42.678;23.288;2023-01-19T03:44:02;14.60;70.90
21092;DHT22;10704;42.678;23.288;2023-01-19T03:46:31;14.70;70.90
21092;DHT22;10704;42.678;23.288;2023-01-19T03:48:57;14.70;70.50
21092;DHT22;10704;42.678;23.288;2023-01-19T03:51:24;14.70;70.70
21092;DHT22;10704;42.678;23.288;2023-01-19T03:53:50;14.60;70.70
21092;DHT22;10704;42.678;23.288;2023-01-19T03:56:21;14.70;70.10
21092;DHT22;10704;42.678;23.288;2023-01-19T03:58:48;14.60;70.20
21092;DHT22;10704;42.678;23.288;2023-01-19T04:01:14;14.70;69.20
21092;DHT22;10704;42.678;23.288;2023-01-19T04:03:41;14.80;68.80
21092;DHT22;10704;42.678;23.288;2023-01-19T04:06:08;14.70;68.60
21092;DHT22;10704;42.678;23.288;2023-01-19T04:08:35;14.70;68.50
21092;DHT22;10704;42.678;23.288;2023-01-19T04:11:02;14.80;68.40
21092;DHT22;10704;42.678;23.288;2023-01-19T04:13:28;14.80;68.00
21092;DHT22;10704;42.678;23.288;2023-01-19T04:15:59;14.80;67.70
21092;DHT22;10704;42.678;23.288;2023-01-19T04:18:30;14.90;67.40
21092;DHT22;10704;42.678;23.288;2023-01-19T04:21:00;14.90;67.00
21092;DHT22;10704;42.678;23.288;2023-01-19T04:23:27;15.00;66.10
21092;DHT22;10704;42.678;23.288;2023-01-19T04:25:57;15.00;65.80
21092;DHT22;10704;42.678;23.288;2023-01-19T04:28:24;15.10;65.20
21092;DHT22;10704;42.678;23.288;2023-01-19T04:30:50;15.10;65.10
21092;DHT22;10704;42.678;23.288;2023-01-19T04:33:17;15.00;65.40
21092;DHT22;10704;42.678;23.288;2023-01-19T04:35:44;15.10;65.30
21092;DHT22;10704;42.678;23.288;2023-01-19T04:38:10;15.00;65.70
21092;DHT22;10704;42.678;23.288;2023-01-19T04:40:36;15.00;65.90
21092;DHT22;10704;42.678;23.288;2023-01-19T04:43:02;14.90;66.10
21092;DHT22;10704;42.678;23.288;2023-01-19T04:45:28;15.00;65.90
21092;DHT22;10704;42.678;23.288;2023-01-19T04:47:54;15.00;65.90
21092;DHT22;10704;42.678;23.288;2023-01-19T04:50:19;15.00;65.80
21092;DHT22;10704;42.678;23.288;2023-01-19T04:52:45;15.00;65.80
21092;DHT22;10704;42.678;23.288;2023-01-19T04:55:12;15.00;66.00
21092;DHT22;10704;42.678;23.288;2023-01-19T04:57:37;15.10;65.30
21092;DHT22;10704;42.678;23.288;2023-01-19T05:00:04;15.00;64.90
21092;DHT22;10704;42.678;23.288;2023-01-19T05:02:33;15.10;64.80
21092;DHT22;10704;42.678;23.288;2023-01-19T05:04:59;15.10;65.00
21092;DHT22;10704;42.678;23.288;2023-01-19T05:07:26;15.10;65.00
21092;DHT22;10704;42.678;23.288;2023-01-19T05:09:51;15.00;65.00
21092;DHT22;10704;42.678;23.288;2023-01-19T05:15:22;15.00;65.10
21092;DHT22;10704;42.678;23.288;2023-01-19T05:21:23;15.00;65.10
21092;DHT22;10704;42.678;23.288;2023-01-19T05:23:49;15.20;64.30
21092;DHT22;10704;42.678;23.288;2023-01-19T05:26:15;15.10;64.30
21092;DHT22;10704;42.678;23.288;2023-01-19T05:28:41;15.20;64.40
21092;DHT22;10704;42.678;23.288;2023-01-19T05:34:54;15.10;64.50
21092;DHT22;10704;42.678;23.288;2023-01-19T05:37:20;15.20;64.10
21092;DHT22;10704;42.678;23.288;2023-01-19T05:39:46;15.10;64.00
21092;DHT22;10704;42.678;23.288;2023-01-19T05:42:12;15.20;63.80
21092;DHT22;10704;42.678;23.288;2023-01-19T05:44:38;15.10;64.00
21092;DHT22;10704;42.678;23.288;2023-01-19T05:47:04;15.20;64.20
21092;DHT22;10704;42.678;23.288;2023-01-19T05:49:29;15.10;64.30
21092;DHT22;10704;42.678;23.288;2023-01-19T05:51:55;15.10;64.00
21092;DHT22;10704;42.678;23.288;2023-01-19T05:58:18;15.10;63.90
21092;DHT22;10704;42.678;23.288;2023-01-19T06:00:44;15.10;63.70
21092;DHT22;10704;42.678;23.288;2023-01-19T06:06:57;15.30;63.10
21092;DHT22;10704;42.678;23.288;2023-01-19T06:09:23;15.40;62.50
21092;DHT22;10704;42.678;23.288;2023-01-19T06:11:49;15.30;62.80
21092;DHT22;10704;42.678;23.288;2023-01-19T06:14:15;15.20;62.80
21092;DHT22;10704;42.678;23.288;2023-01-19T06:16:42;15.30;62.90
21092;DHT22;10704;42.678;23.288;2023-01-19T06:19:08;15.20;63.10
21092;DHT22;10704;42.678;23.288;2023-01-19T06:37:04;15.30;63.20
21092;DHT22;10704;42.678;23.288;2023-01-19T06:39:30;15.30;62.80
21092;DHT22;10704;42.678;23.288;2023-01-19T06:41:56;15.30;62.70
21092;DHT22;10704;42.678;23.288;2023-01-19T06:44:22;15.30;62.90
21092;DHT22;10704;42.678;23.288;2023-01-19T06:46:48;15.30;62.80
21092;DHT22;10704;42.678;23.288;2023-01-19T06:49:14;15.20;62.80
21092;DHT22;10704;42.678;23.288;2023-01-19T06:51:40;15.40;62.50
21092;DHT22;10704;42.678;23.288;2023-01-19T06:54:06;15.40;62.50
21092;DHT22;10704;42.678;23.288;2023-01-19T06:56:32;15.40;62.20
21092;DHT22;10704;42.678;23.288;2023-01-19T06:58:57;15.40;62.10
21092;DHT22;10704;42.678;23.288;2023-01-19T07:01:23;15.50;62.00
21092;DHT22;10704;42.678;23.288;2023-01-19T07:03:49;15.50;61.70
21092;DHT22;10704;42.678;23.288;2023-01-19T07:06:16;15.60;61.40
21092;DHT22;10704;42.678;23.288;2023-01-19T07:08:42;15.60;60.80
21092;DHT22;10704;42.678;23.288;2023-01-19T07:11:11;15.60;60.90
21092;DHT22;10704;42.678;23.288;2023-01-19T07:13:38;15.60;60.90
21092;DHT22;10704;42.678;23.288;2023-01-19T07:16:10;15.70;60.90
21092;DHT22;10704;42.678;23.288;2023-01-19T07:18:36;15.70;60.70
21092;DHT22;10704;42.678;23.288;2023-01-19T07:21:39;15.70;60.70
21092;DHT22;10704;42.678;23.288;2023-01-19T07:24:06;15.80;60.00
21092;DHT22;10704;42.678;23.288;2023-01-19T07:26:31;15.90;59.50
21092;DHT22;10704;42.678;23.288;2023-01-19T07:32:46;16.10;59.40
21092;DHT22;10704;42.678;23.288;2023-01-19T07:35:12;16.20;58.60
21092;DHT22;10704;42.678;23.288;2023-01-19T07:37:37;16.20;58.30
21092;DHT22;10704;42.678;23.288;2023-01-19T07:40:32;16.30;58.00
21092;DHT22;10704;42.678;23.288;2023-01-19T07:42:59;16.40;58.20
21092;DHT22;10704;42.678;23.288;2023-01-19T07:45:25;16.50;58.00
21092;DHT22;10704;42.678;23.288;2023-01-19T07:47:52;16.50;57.70
21092;DHT22;10704;42.678;23.288;2023-01-19T07:50:18;16.50;57.90
21092;DHT22;10704;42.678;23.288;2023-01-19T07:52:50;16.60;57.50
21092;DHT22;10704;42.678;23.288;2023-01-19T07:55:19;16.70;56.80
21092;DHT22;10704;42.678;23.288;2023-01-19T07:57:47;16.70;56.50
21092;DHT22;10704;42.678;23.288;2023-01-19T08:00:16;17.00;56.40
21092;DHT22;10704;42.678;23.288;2023-01-19T08:02:47;17.20;55.10
21092;DHT22;10704;42.678;23.288;2023-01-19T08:05:19;17.10;55.40
21092;DHT22;10704;42.678;23.288;2023-01-19T08:07:46;17.20;55.40
21092;DHT22;10704;42.678;23.288;2023-01-19T08:10:14;17.40;55.10
21092;DHT22;10704;42.678;23.288;2023-01-19T08:12:40;17.40;54.80
21092;DHT22;10704;42.678;23.288;2023-01-19T08:15:08;17.40;54.90
21092;DHT22;10704;42.678;23.288;2023-01-19T08:17:35;17.50;54.50
21092;DHT22;10704;42.678;23.288;2023-01-19T08:22:54;18.10;53.70
21092;DHT22;10704;42.678;23.288;2023-01-19T08:29:12;17.90;53.30
21092;DHT22;10704;42.678;23.288;2023-01-19T08:31:38;18.10;53.00
21092;DHT22;10704;42.678;23.288;2023-01-19T08:34:04;17.90;53.20
21092;DHT22;10704;42.678;23.288;2023-01-19T08:36:30;17.80;53.70
21092;DHT22;10704;42.678;23.288;2023-01-19T08:38:56;18.00;53.60
21092;DHT22;10704;42.678;23.288;2023-01-19T08:41:22;18.20;53.20
21092;DHT22;10704;42.678;23.288;2023-01-19T08:43:48;18.30;53.00
21092;DHT22;10704;42.678;23.288;2023-01-19T08:46:15;18.10;53.10
21092;DHT22;10704;42.678;23.288;2023-01-19T08:48:42;18.60;52.90
21092;DHT22;10704;42.678;23.288;2023-01-19T08:51:11;18.40;52.80
21092;DHT22;10704;42.678;23.288;2023-01-19T08:53:37;18.60;52.80
21092;DHT22;10704;42.678;23.288;2023-01-19T08:56:03;18.30;53.20
21092;DHT22;10704;42.678;23.288;2023-01-19T08:58:30;18.30;53.40
21092;DHT22;10704;42.678;23.288;2023-01-19T09:00:58;18.50;53.20
21092;DHT22;10704;42.678;23.288;2023-01-19T09:03:24;18.40;53.50
21092;DHT22;10704;42.678;23.288;2023-01-19T09:05:50;19.30;52.50
21092;DHT22;10704;42.678;23.288;2023-01-19T09:08:16;19.50;52.10
21092;DHT22;10704;42.678;23.288;2023-01-19T09:10:47;18.90;52.00
21092;DHT22;10704;42.678;23.288;2023-01-19T09:13:14;18.50;53.10
21092;DHT22;10704;42.678;23.288;2023-01-19T09:15:41;18.70;52.80
21092;DHT22;10704;42.678;23.288;2023-01-19T09:18:13;18.90;52.40
21092;DHT22;10704;42.678;23.288;2023-01-19T09:24:27;19.30;51.40
21092;DHT22;10704;42.678;23.288;2023-01-19T09:26:53;20.40;50.00
21092;DHT22;10704;42.678;23.288;2023-01-19T09:29:19;20.60;49.30
21092;DHT22;10704;42.678;23.288;2023-01-19T09:31:45;20.90;49.10
21092;DHT22;10704;42.678;23.288;2023-01-19T09:34:11;21.10;48.80
21092;DHT22;10704;42.678;23.288;2023-01-19T09:36:37;21.00;47.80
21092;DHT22;10704;42.678;23.288;2023-01-19T09:39:04;20.60;48.70
21092;DHT22;10704;42.678;23.288;2023-01-19T09:41:32;20.10;49.30
21092;DHT22;10704;42.678;23.288;2023-01-19T09:43:59;20.50;49.40
21092;DHT22;10704;42.678;23.288;2023-01-19T09:49:01;20.10;49.40
21092;DHT22;10704;42.678;23.288;2023-01-19T09:51:34;20.20;49.50
21092;DHT22;10704;42.678;23.288;2023-01-19T09:54:11;20.70;49.00
21092;DHT22;10704;42.678;23.288;2023-01-19T09:56:44;20.50;49.10
21092;DHT22;10704;42.678;23.288;2023-01-19T09:59:25;20.60;48.60
21092;DHT22;10704;42.678;23.288;2023-01-19T10:04:39;20.10;49.50
21092;DHT22;10704;42.678;23.288;2023-01-19T10:07:18;20.50;49.00
21092;DHT22;10704;42.678;23.288;2023-01-19T10:13:00;22.00;47.00
21092;DHT22;10704;42.678;23.288;2023-01-19T10:18:27;22.10;47.00
21092;DHT22;10704;42.678;23.288;2023-01-19T10:21:09;22.30;46.10
21092;DHT22;10704;42.678;23.288;2023-01-19T10:27:28;24.40;44.10
21092;DHT22;10704;42.678;23.288;2023-01-19T10:29:56;22.90;45.30
21092;DHT22;10704;42.678;23.288;2023-01-19T10:32:32;22.60;45.70
21092;DHT22;10704;42.678;23.288;2023-01-19T10:35:05;22.50;45.00
21092;DHT22;10704;42.678;23.288;2023-01-19T10:37:46;21.90;46.10
21092;DHT22;10704;42.678;23.288;2023-01-19T10:40:47;21.40;46.50
21092;DHT22;10704;42.678;23.288;2023-01-19T10:46:05;20.20;48.90
21092;DHT22;10704;42.678;23.288;2023-01-19T10:48:39;20.90;47.60
21092;DHT22;10704;42.678;23.288;2023-01-19T10:51:08;20.20;48.20
21092;DHT22;10704;42.678;23.288;2023-01-19T10:53:34;19.70;49.10
21092;DHT22;10704;42.678;23.288;2023-01-19T10:56:14;18.40;50.90
21092;DHT22;10704;42.678;23.288;2023-01-19T10:58:41;18.30;51.40
21092;DHT22;10704;42.678;23.288;2023-01-19T11:01:22;18.20;51.50
21092;DHT22;10704;42.678;23.288;2023-01-19T11:07:36;19.80;50.00
21092;DHT22;10704;42.678;23.288;2023-01-19T11:12:42;18.20;52.50
21092;DHT22;10704;42.678;23.288;2023-01-19T11:15:21;18.20;52.30
21092;DHT22;10704;42.678;23.288;2023-01-19T11:17:48;18.40;52.10
21092;DHT22;10704;42.678;23.288;2023-01-19T11:20:20;18.20;52.00
21092;DHT22;10704;42.678;23.288;2023-01-19T11:22:47;18.00;52.90
21092;DHT22;10704;42.678;23.288;2023-01-19T11:25:28;18.20;52.50
21092;DHT22;10704;42.678;23.288;2023-01-19T11:27:55;18.60;52.20
21092;DHT22;10704;42.678;23.288;2023-01-19T11:30:24;18.90;51.10
21092;DHT22;10704;42.678;23.288;2023-01-19T11:32:50;19.10;51.00
21092;DHT22;10704;42.678;23.288;2023-01-19T11:38:19;19.30;50.00
21092;DHT22;10704;42.678;23.288;2023-01-19T11:40:53;19.00;51.50
21092;DHT22;10704;42.678;23.288;2023-01-19T11:43:22;19.10;50.50
21092;DHT22;10704;42.678;23.288;2023-01-19T11:45:48;19.30;50.20
21092;DHT22;10704;42.678;23.288;2023-01-19T11:48:57;19.30;50.70
21092;DHT22;10704;42.678;23.288;2023-01-19T11:54:47;18.40;50.70
21092;DHT22;10704;42.678;23.288;2023-01-19T11:57:15;18.50;51.40
21092;DHT22;10704;42.678;23.288;2023-01-19T11:59:42;18.70;50.70
21092;DHT22;10704;42.678;23.288;2023-01-19T12:02:31;18.70;50.50
21092;DHT22;10704;42.678;23.288;2023-01-19T12:05:05;18.20;50.80
21092;DHT22;10704;42.678;23.288;2023-01-19T12:07:34;18.00;51.60
21092;DHT22;10704;42.678;23.288;2023-01-19T12:10:30;18.60;51.30
21092;DHT22;10704;42.678;23.288;2023-01-19T12:12:57;19.60;49.40
21092;DHT22;10704;42.678;23.288;2023-01-19T12:18:04;20.30;47.70
21092;DHT22;10704;42.678;23.288;2023-01-19T12:20:44;20.00;48.00
21092;DHT22;10704;42.678;23.288;2023-01-19T12:28:46;18.30;50.70
21092;DHT22;10704;42.678;23.288;2023-01-19T12:31:18;17.90;50.90
21092;DHT22;10704;42.678;23.288;2023-01-19T12:33:44;18.10;51.20
21092;DHT22;10704;42.678;23.288;2023-01-19T12:38:56;19.30;49.50
21092;DHT22;10704;42.678;23.288;2023-01-19T12:41:36;19.00;49.40
21092;DHT22;10704;42.678;23.288;2023-01-19T12:46:56;18.10;50.90
21092;DHT22;10704;42.678;23.288;2023-01-19T12:49:32;17.70;51.30
21092;DHT22;10704;42.678;23.288;2023-01-19T12:52:22;17.70;51.90
21092;DHT22;10704;42.678;23.288;2023-01-19T12:57:45;17.60;52.10
21092;DHT22;10704;42.678;23.288;2023-01-19T13:02:59;18.00;51.60
21092;DHT22;10704;42.678;23.288;2023-01-19T13:21:39;17.40;52.30
21092;DHT22;10704;42.678;23.288;2023-01-19T13:24:16;17.30;52.60
21092;DHT22;10704;42.678;23.288;2023-01-19T13:26:55;17.30;52.50
21092;DHT22;10704;42.678;23.288;2023-01-19T13:32:00;17.20;52.80
21092;DHT22;10704;42.678;23.288;2023-01-19T13:37:00;17.20;53.00
21092;DHT22;10704;42.678;23.288;2023-01-19T13:39:33;17.50;52.70
21092;DHT22;10704;42.678;23.288;2023-01-19T13:42:03;17.80;52.00
21092;DHT22;10704;42.678;23.288;2023-01-19T13:44:39;18.20;51.20
21092;DHT22;10704;42.678;23.288;2023-01-19T13:47:16;18.30;50.70
21092;DHT22;10704;42.678;23.288;2023-01-19T13:49:44;18.40;50.60
21092;DHT22;10704;42.678;23.288;2023-01-19T13:52:18;18.60;50.30
21092;DHT22;10704;42.678;23.288;2023-01-19T13:54:53;18.50;50.20
21092;DHT22;10704;42.678;23.288;2023-01-19T14:02:52;18.00;50.90
21092;DHT22;10704;42.678;23.288;2023-01-19T14:05:30;17.90;51.50
21092;DHT22;10704;42.678;23.288;2023-01-19T14:13:30;17.50;52.40
21092;DHT22;10704;42.678;23.288;2023-01-19T14:16:04;17.40;52.90
21092;DHT22;10704;42.678;23.288;2023-01-19T14:18:32;17.40;52.90
21092;DHT22;10704;42.678;23.288;2023-01-19T14:21:11;17.10;53.30
21092;DHT22;10704;42.678;23.288;2023-01-19T14:28:51;16.70;54.60
21092;DHT22;10704;42.678;23.288;2023-01-19T14:31:22;16.60;54.80
21092;DHT22;10704;42.678;23.288;2023-01-19T14:33:51;16.60;54.80
21092;DHT22;10704;42.678;23.288;2023-01-19T14:36:28;16.50;54.90
21092;DHT22;10704;42.678;23.288;2023-01-19T14:38:58;16.50;54.90
21092;DHT22;10704;42.678;23.288;2023-01-19T14:41:27;16.50;55.00
21092;DHT22;10704;42.678;23.288;2023-01-19T14:43:56;16.50;55.00
21092;DHT22;10704;42.678;23.288;2023-01-19T14:46:23;16.50;55.00
21092;DHT22;10704;42.678;23.288;2023-01-19T14:48:52;16.40;55.00
21092;DHT22;10704;42.678;23.288;2023-01-19T14:51:22;16.40;55.00
21092;DHT22;10704;42.678;23.288;2023-01-19T14:53:54;16.50;55.10
21092;DHT22;10704;42.678;23.288;2023-01-19T14:56:29;16.40;55.10
21092;DHT22;10704;42.678;23.288;2023-01-19T14:58:57;16.40;55.30
21092;DHT22;10704;42.678;23.288;2023-01-19T15:01:24;16.30;55.50
21092;DHT22;10704;42.678;23.288;2023-01-19T15:03:56;16.30;55.30
21092;DHT22;10704;42.678;23.288;2023-01-19T15:06:23;16.30;55.30
21092;DHT22;10704;42.678;23.288;2023-01-19T15:08:49;16.20;55.40
21092;DHT22;10704;42.678;23.288;2023-01-19T15:11:29;16.20;55.70
21092;DHT22;10704;42.678;23.288;2023-01-19T15:13:56;16.20;55.80
21092;DHT22;10704;42.678;23.288;2023-01-19T15:16:23;16.10;55.90
21092;DHT22;10704;42.678;23.288;2023-01-19T15:18:49;16.00;56.10
21092;DHT22;10704;42.678;23.288;2023-01-19T15:21:16;16.10;56.30
21092;DHT22;10704;42.678;23.288;2023-01-19T15:23:48;16.10;56.30
21092;DHT22;10704;42.678;23.288;2023-01-19T15:26:20;16.10;56.40
21092;DHT22;10704;42.678;23.288;2023-01-19T15:28:47;16.10;56.70
21092;DHT22;10704;42.678;23.288;2023-01-19T15:31:18;16.00;57.10
21092;DHT22;10704;42.678;23.288;2023-01-19T15:33:44;15.90;57.50
21092;DHT22;10704;42.678;23.288;2023-01-19T15:36:15;15.90;57.80
21092;DHT22;10704;42.678;23.288;2023-01-19T15:38:41;15.90;57.90
21092;DHT22;10704;42.678;23.288;2023-01-19T15:41:23;15.90;57.80
21092;DHT22;10704;42.678;23.288;2023-01-19T15:43:50;15.90;57.60
21092;DHT22;10704;42.678;23.288;2023-01-19T15:46:18;15.90;57.40
21092;DHT22;10704;42.678;23.288;2023-01-19T15:48:46;15.90;57.50
21092;DHT22;10704;42.678;23.288;2023-01-19T15:51:13;15.90;57.70
21092;DHT22;10704;42.678;23.288;2023-01-19T15:53:40;15.90;57.90
21092;DHT22;10704;42.678;23.288;2023-01-19T15:56:24;15.90;57.90
21092;DHT22;10704;42.678;23.288;2023-01-19T15:58:51;15.80;58.20
21092;DHT22;10704;42.678;23.288;2023-01-19T16:01:20;15.80;58.50
21092;DHT22;10704;42.678;23.288;2023-01-19T16:03:46;15.80;59.00
21092;DHT22;10704;42.678;23.288;2023-01-19T16:06:12;15.80;59.40
21092;DHT22;10704;42.678;23.288;2023-01-19T16:08:41;15.80;59.60
21092;DHT22;10704;42.678;23.288;2023-01-19T16:11:12;15.70;60.30
21092;DHT22;10704;42.678;23.288;2023-01-19T16:13:39;15.60;60.70
21092;DHT22;10704;42.678;23.288;2023-01-19T16:16:07;15.50;61.20
21092;DHT22;10704;42.678;23.288;2023-01-19T16:18:36;15.40;64.80
21092;DHT22;10704;42.678;23.288;2023-01-19T16:21:02;15.00;67.50
21092;DHT22;10704;42.678;23.288;2023-01-19T16:23:28;14.70;71.30
21092;DHT22;10704;42.678;23.288;2023-01-19T16:25:59;14.40;73.00
21092;DHT22;10704;42.678;23.288;2023-01-19T16:28:30;14.00;79.20
21092;DHT22;10704;42.678;23.288;2023-01-19T16:30:56;13.00;95.40
21092;DHT22;10704;42.678;23.288;2023-01-19T16:33:22;12.30;99.90
21092;DHT22;10704;42.678;23.288;2023-01-19T16:35:48;12.00;99.90
21092;DHT22;10704;42.678;23.288;2023-01-19T16:38:14;11.70;99.90
21092;DHT22;10704;42.678;23.288;2023-01-19T16:40:43;11.50;99.90
21092;DHT22;10704;42.678;23.288;2023-01-19T16:43:09;11.30;99.90
21092;DHT22;10704;42.678;23.288;2023-01-19T16:45:58;11.20;99.90
21092;DHT22;10704;42.678;23.288;2023-01-19T16:48:25;11.30;99.90
21092;DHT22;10704;42.678;23.288;2023-01-19T16:51:02;11.20;99.90
21092;DHT22;10704;42.678;23.288;2023-01-19T16:53:32;10.80;99.90
21092;DHT22;10704;42.678;23.288;2023-01-19T16:56:06;10.60;99.90
21092;DHT22;10704;42.678;23.288;2023-01-19T16:58:33;10.60;99.90
21092;DHT22;10704;42.678;23.288;2023-01-19T17:03:34;10.60;99.90
21092;DHT22;10704;42.678;23.288;2023-01-19T17:06:00;10.60;99.90
21092;DHT22;10704;42.678;23.288;2023-01-19T17:08:26;10.60;99.90
21092;DHT22;10704;42.678;23.288;2023-01-19T17:10:52;10.60;99.90
21092;DHT22;10704;42.678;23.288;2023-01-19T17:13:20;10.40;99.90
21092;DHT22;10704;42.678;23.288;2023-01-19T17:15:49;10.40;99.90
21092;DHT22;10704;42.678;23.288;2023-01-19T17:18:15;10.40;99.90
21092;DHT22;10704;42.678;23.288;2023-01-19T17:20:41;10.30;99.90
21092;DHT22;10704;42.678;23.288;2023-01-19T17:23:06;10.40;99.90
21092;DHT22;10704;42.678;23.288;2023-01-19T17:25:32;10.50;99.90
21092;DHT22;10704;42.678;23.288;2023-01-19T17:27:58;10.50;99.90
21092;DHT22;10704;42.678;23.288;2023-01-19T17:30:26;10.50;99.90
21092;DHT22;10704;42.678;23.288;2023-01-19T17:32:52;10.50;99.90
21092;DHT22;10704;42.678;23.288;2023-01-19T17:35:18;10.50;99.90
21092;DHT22;10704;42.678;23.288;2023-01-19T17:37:43;10.50;99.90
21092;DHT22;10704;42.678;23.288;2023-01-19T17:40:10;10.60;99.90
21092;DHT22;10704;42.678;23.288;2023-01-19T17:42:40;10.80;99.90
21092;DHT22;10704;42.678;23.288;2023-01-19T17:45:08;10.90;99.90
21092;DHT22;10704;42.678;23.288;2023-01-19T17:47:36;11.00;99.90
21092;DHT22;10704;42.678;23.288;2023-01-19T17:50:02;11.00;99.90
21092;DHT22;10704;42.678;23.288;2023-01-19T17:52:28;11.00;99.90
21092;DHT22;10704;42.678;23.288;2023-01-19T17:54:54;11.00;99.90
21092;DHT22;10704;42.678;23.288;2023-01-19T17:57:20;11.00;99.90
21092;DHT22;10704;42.678;23.288;2023-01-19T17:59:46;10.90;99.90
21092;DHT22;10704;42.678;23.288;2023-01-19T18:02:12;10.80;99.90
21092;DHT22;10704;42.678;23.288;2023-01-19T18:04:38;10.90;99.90